sensor_id;sensor_type;location;lat;lon;timestamp;temperature;humidity
78520;SHT31;67818;51.986;5.648;2023-02-28T00:02:25;2.0;68.1
78520;SHT31;67818;51.986;5.648;2023-02-28T00:04:54;2.1;68.1
78520;SHT31;67818;51.986;5.648;2023-02-28T00:07:28;2.1;68.2
78520;SHT31;67818;51.986;5.648;2023-02-28T00:09:58;2.1;68.5
78520;SHT31;67818;51.986;5.648;2023-02-28T00:12:30;2.2;68.5
78520;SHT31;67818;51.986;5.648;2023-02-28T00:15:00;2.2;68.4
78520;SHT31;67818;51.986;5.648;2023-02-28T00:17:31;2.3;68.3
78520;SHT31;67818;51.986;5.648;2023-02-28T00:20:04;2.3;68.4
78520;SHT31;67818;51.986;5.648;2023-02-28T00:22:38;2.4;68.1
78520;SHT31;67818;51.986;5.648;2023-02-28T00:25:10;2.5;67.8
78520;SHT31;67818;51.986;5.648;2023-02-28T00:27:41;2.6;67.6
78520;SHT31;67818;51.986;5.648;2023-02-28T00:30:13;2.7;67.6
78520;SHT31;67818;51.986;5.648;2023-02-28T00:32:43;2.7;67.4
78520;SHT31;67818;51.986;5.648;2023-02-28T00:35:13;2.8;67.2
78520;SHT31;67818;51.986;5.648;2023-02-28T00:37:44;2.9;67.1
78520;SHT31;67818;51.986;5.648;2023-02-28T00:40:13;3.0;66.9
78520;SHT31;67818;51.986;5.648;2023-02-28T00:42:45;3.0;66.7
78520;SHT31;67818;51.986;5.648;2023-02-28T00:45:16;3.1;66.5
78520;SHT31;67818;51.986;5.648;2023-02-28T00:47:48;3.1;66.3
78520;SHT31;67818;51.986;5.648;2023-02-28T00:50:19;3.2;66.1
78520;SHT31;67818;51.986;5.648;2023-02-28T00:52:49;3.3;65.9
78520;SHT31;67818;51.986;5.648;2023-02-28T00:55:18;3.3;65.7
78520;SHT31;67818;51.986;5.648;2023-02-28T00:57:48;3.4;65.6
78520;SHT31;67818;51.986;5.648;2023-02-28T01:00:19;3.4;65.5
78520;SHT31;67818;51.986;5.648;2023-02-28T01:02:48;3.5;65.3
78520;SHT31;67818;51.986;5.648;2023-02-28T01:05:18;3.6;64.9
78520;SHT31;67818;51.986;5.648;2023-02-28T01:07:47;3.6;64.9
78520;SHT31;67818;51.986;5.648;2023-02-28T01:10:20;3.7;64.9
78520;SHT31;67818;51.986;5.648;2023-02-28T01:12:49;3.7;64.9
78520;SHT31;67818;51.986;5.648;2023-02-28T01:15:19;3.8;64.8
78520;SHT31;67818;51.986;5.648;2023-02-28T01:17:49;3.8;64.4
78520;SHT31;67818;51.986;5.648;2023-02-28T01:20:18;3.8;64.2
78520;SHT31;67818;51.986;5.648;2023-02-28T01:22:50;3.9;63.6
78520;SHT31;67818;51.986;5.648;2023-02-28T01:25:19;3.9;63.5
78520;SHT31;67818;51.986;5.648;2023-02-28T01:27:49;4.0;63.2
78520;SHT31;67818;51.986;5.648;2023-02-28T01:30:19;4.0;63.3
78520;SHT31;67818;51.986;5.648;2023-02-28T01:32:48;4.0;63.2
78520;SHT31;67818;51.986;5.648;2023-02-28T01:35:21;4.0;63.3
78520;SHT31;67818;51.986;5.648;2023-02-28T01:37:50;4.1;63.3
78520;SHT31;67818;51.986;5.648;2023-02-28T01:40:20;4.1;63.1
78520;SHT31;67818;51.986;5.648;2023-02-28T01:42:49;4.1;62.9
78520;SHT31;67818;51.986;5.648;2023-02-28T01:45:23;4.2;62.9
78520;SHT31;67818;51.986;5.648;2023-02-28T01:47:57;4.2;62.7
78520;SHT31;67818;51.986;5.648;2023-02-28T01:50:31;4.2;62.6
78520;SHT31;67818;51.986;5.648;2023-02-28T01:53:08;4.3;62.4
78520;SHT31;67818;51.986;5.648;2023-02-28T01:55:42;4.3;62.4
78520;SHT31;67818;51.986;5.648;2023-02-28T01:58:14;4.3;62.3
78520;SHT31;67818;51.986;5.648;2023-02-28T02:00:44;4.3;62.2
78520;SHT31;67818;51.986;5.648;2023-02-28T02:03:18;4.3;62.2
78520;SHT31;67818;51.986;5.648;2023-02-28T02:05:49;4.3;62.2
78520;SHT31;67818;51.986;5.648;2023-02-28T02:08:22;4.3;62.3
78520;SHT31;67818;51.986;5.648;2023-02-28T02:10:54;4.3;62.4
78520;SHT31;67818;51.986;5.648;2023-02-28T02:13:56;4.3;62.5
78520;SHT31;67818;51.986;5.648;2023-02-28T02:16:45;4.4;62.5
78520;SHT31;67818;51.986;5.648;2023-02-28T02:19:40;4.5;62.8
78520;SHT31;67818;51.986;5.648;2023-02-28T02:22:30;4.7;62.2
78520;SHT31;67818;51.986;5.648;2023-02-28T02:25:44;4.9;61.1
78520;SHT31;67818;51.986;5.648;2023-02-28T02:28:48;5.0;60.5
78520;SHT31;67818;51.986;5.648;2023-02-28T02:32:04;5.0;60.1
78520;SHT31;67818;51.986;5.648;2023-02-28T02:34:52;5.1;60.0
78520;SHT31;67818;51.986;5.648;2023-02-28T02:37:29;5.1;59.5
78520;SHT31;67818;51.986;5.648;2023-02-28T02:40:13;5.1;59.4
78520;SHT31;67818;51.986;5.648;2023-02-28T02:42:49;5.1;59.1
78520;SHT31;67818;51.986;5.648;2023-02-28T02:45:25;5.0;59.5
78520;SHT31;67818;51.986;5.648;2023-02-28T02:47:59;5.0;59.3
78520;SHT31;67818;51.986;5.648;2023-02-28T02:50:33;5.0;58.9
78520;SHT31;67818;51.986;5.648;2023-02-28T02:53:06;5.0;59.8
78520;SHT31;67818;51.986;5.648;2023-02-28T02:55:40;4.9;59.5
78520;SHT31;67818;51.986;5.648;2023-02-28T02:58:15;4.9;59.7
78520;SHT31;67818;51.986;5.648;2023-02-28T03:00:51;4.9;60.2
78520;SHT31;67818;51.986;5.648;2023-02-28T03:03:23;4.9;59.9
78520;SHT31;67818;51.986;5.648;2023-02-28T03:06:00;4.9;59.7
78520;SHT31;67818;51.986;5.648;2023-02-28T03:08:35;4.9;59.8
78520;SHT31;67818;51.986;5.648;2023-02-28T03:11:06;4.9;60.0
78520;SHT31;67818;51.986;5.648;2023-02-28T03:13:57;4.8;60.0
78520;SHT31;67818;51.986;5.648;2023-02-28T03:16:36;4.8;60.0
78520;SHT31;67818;51.986;5.648;2023-02-28T03:19:29;4.8;59.6
78520;SHT31;67818;51.986;5.648;2023-02-28T03:22:09;4.7;59.8
78520;SHT31;67818;51.986;5.648;2023-02-28T03:24:48;4.7;59.8
78520;SHT31;67818;51.986;5.648;2023-02-28T03:27:26;4.7;60.2
78520;SHT31;67818;51.986;5.648;2023-02-28T03:30:02;4.7;60.3
78520;SHT31;67818;51.986;5.648;2023-02-28T03:32:38;4.6;61.0
78520;SHT31;67818;51.986;5.648;2023-02-28T03:35:16;4.6;61.2
78520;SHT31;67818;51.986;5.648;2023-02-28T03:37:55;4.6;61.0
78520;SHT31;67818;51.986;5.648;2023-02-28T03:40:32;4.7;60.8
78520;SHT31;67818;51.986;5.648;2023-02-28T03:43:11;4.7;60.9
78520;SHT31;67818;51.986;5.648;2023-02-28T03:45:45;4.7;61.3
78520;SHT31;67818;51.986;5.648;2023-02-28T03:48:20;4.7;61.4
78520;SHT31;67818;51.986;5.648;2023-02-28T03:50:55;4.7;61.0
78520;SHT31;67818;51.986;5.648;2023-02-28T03:53:29;4.7;60.8
78520;SHT31;67818;51.986;5.648;2023-02-28T03:56:08;4.7;60.1
78520;SHT31;67818;51.986;5.648;2023-02-28T03:58:51;4.7;60.2
78520;SHT31;67818;51.986;5.648;2023-02-28T04:01:28;4.7;60.0
78520;SHT31;67818;51.986;5.648;2023-02-28T04:04:00;4.7;59.9
78520;SHT31;67818;51.986;5.648;2023-02-28T04:06:32;4.7;59.7
78520;SHT31;67818;51.986;5.648;2023-02-28T04:09:04;4.7;59.5
78520;SHT31;67818;51.986;5.648;2023-02-28T04:11:36;4.7;57.5
78520;SHT31;67818;51.986;5.648;2023-02-28T04:14:08;4.6;56.5
78520;SHT31;67818;51.986;5.648;2023-02-28T04:16:40;4.6;56.7
78520;SHT31;67818;51.986;5.648;2023-02-28T04:19:12;4.6;57.0
78520;SHT31;67818;51.986;5.648;2023-02-28T04:21:44;4.6;56.4
78520;SHT31;67818;51.986;5.648;2023-02-28T04:24:16;4.5;56.7
78520;SHT31;67818;51.986;5.648;2023-02-28T04:26:49;4.5;56.5
78520;SHT31;67818;51.986;5.648;2023-02-28T04:29:22;4.4;56.7
78520;SHT31;67818;51.986;5.648;2023-02-28T04:31:52;4.4;57.3
78520;SHT31;67818;51.986;5.648;2023-02-28T04:34:28;4.3;57.5
78520;SHT31;67818;51.986;5.648;2023-02-28T04:36:58;4.3;57.7
78520;SHT31;67818;51.986;5.648;2023-02-28T04:39:28;4.3;57.9
78520;SHT31;67818;51.986;5.648;2023-02-28T04:41:57;4.3;59.1
78520;SHT31;67818;51.986;5.648;2023-02-28T04:44:28;4.3;59.2
78520;SHT31;67818;51.986;5.648;2023-02-28T04:46:57;4.3;58.9
78520;SHT31;67818;51.986;5.648;2023-02-28T04:49:29;4.3;59.5
78520;SHT31;67818;51.986;5.648;2023-02-28T04:51:58;4.3;59.7
78520;SHT31;67818;51.986;5.648;2023-02-28T04:54:28;4.3;60.1
78520;SHT31;67818;51.986;5.648;2023-02-28T04:56:58;4.3;60.5
78520;SHT31;67818;51.986;5.648;2023-02-28T04:59:28;4.3;59.8
78520;SHT31;67818;51.986;5.648;2023-02-28T05:01:59;4.4;60.4
78520;SHT31;67818;51.986;5.648;2023-02-28T05:04:34;4.4;59.8
78520;SHT31;67818;51.986;5.648;2023-02-28T05:07:04;4.4;59.6
78520;SHT31;67818;51.986;5.648;2023-02-28T05:09:35;4.4;60.4
78520;SHT31;67818;51.986;5.648;2023-02-28T05:12:05;4.5;60.2
78520;SHT31;67818;51.986;5.648;2023-02-28T05:14:35;4.5;59.8
78520;SHT31;67818;51.986;5.648;2023-02-28T05:17:04;4.5;60.2
78520;SHT31;67818;51.986;5.648;2023-02-28T05:19:34;4.5;59.8
78520;SHT31;67818;51.986;5.648;2023-02-28T05:22:03;4.5;59.8
78520;SHT31;67818;51.986;5.648;2023-02-28T05:24:34;4.5;59.7
78520;SHT31;67818;51.986;5.648;2023-02-28T05:29:32;5.0;57.8
78520;SHT31;67818;51.986;5.648;2023-02-28T05:32:10;5.0;57.5
78520;SHT31;67818;51.986;5.648;2023-02-28T05:34:40;5.0;57.4
78520;SHT31;67818;51.986;5.648;2023-02-28T05:37:12;5.0;58.2
78520;SHT31;67818;51.986;5.648;2023-02-28T05:39:43;5.0;58.9
78520;SHT31;67818;51.986;5.648;2023-02-28T05:42:12;5.0;57.7
78520;SHT31;67818;51.986;5.648;2023-02-28T05:44:42;5.0;57.5
78520;SHT31;67818;51.986;5.648;2023-02-28T05:47:11;5.0;57.3
78520;SHT31;67818;51.986;5.648;2023-02-28T05:49:42;4.9;57.6
78520;SHT31;67818;51.986;5.648;2023-02-28T05:52:14;4.9;57.8
78520;SHT31;67818;51.986;5.648;2023-02-28T05:54:44;4.9;57.5
78520;SHT31;67818;51.986;5.648;2023-02-28T05:57:16;4.8;57.8
78520;SHT31;67818;51.986;5.648;2023-02-28T05:59:46;4.8;57.8
78520;SHT31;67818;51.986;5.648;2023-02-28T06:02:17;4.8;58.9
78520;SHT31;67818;51.986;5.648;2023-02-28T06:04:47;4.7;58.1
78520;SHT31;67818;51.986;5.648;2023-02-28T06:07:16;4.7;58.3
78520;SHT31;67818;51.986;5.648;2023-02-28T06:09:48;4.7;58.3
78520;SHT31;67818;51.986;5.648;2023-02-28T06:12:17;4.7;58.2
78520;SHT31;67818;51.986;5.648;2023-02-28T06:14:47;4.7;58.8
78520;SHT31;67818;51.986;5.648;2023-02-28T06:17:16;4.7;59.1
78520;SHT31;67818;51.986;5.648;2023-02-28T06:19:46;4.7;59.3
78520;SHT31;67818;51.986;5.648;2023-02-28T06:22:16;4.7;59.2
78520;SHT31;67818;51.986;5.648;2023-02-28T06:24:50;4.7;59.6
78520;SHT31;67818;51.986;5.648;2023-02-28T06:27:20;4.7;60.0
78520;SHT31;67818;51.986;5.648;2023-02-28T06:29:56;4.7;60.3
78520;SHT31;67818;51.986;5.648;2023-02-28T06:32:26;4.7;60.4
78520;SHT31;67818;51.986;5.648;2023-02-28T06:34:55;4.7;59.9
78520;SHT31;67818;51.986;5.648;2023-02-28T06:37:25;4.8;59.9
78520;SHT31;67818;51.986;5.648;2023-02-28T06:39:55;4.8;59.3
78520;SHT31;67818;51.986;5.648;2023-02-28T06:42:25;4.8;59.2
78520;SHT31;67818;51.986;5.648;2023-02-28T06:44:56;4.9;59.2
78520;SHT31;67818;51.986;5.648;2023-02-28T06:47:26;4.9;59.1
78520;SHT31;67818;51.986;5.648;2023-02-28T06:49:56;5.0;58.7
78520;SHT31;67818;51.986;5.648;2023-02-28T06:52:27;5.0;58.9
78520;SHT31;67818;51.986;5.648;2023-02-28T06:54:57;5.0;58.6
78520;SHT31;67818;51.986;5.648;2023-02-28T06:57:30;5.0;58.3
78520;SHT31;67818;51.986;5.648;2023-02-28T07:00:04;5.0;58.3
78520;SHT31;67818;51.986;5.648;2023-02-28T07:02:36;5.1;58.6
78520;SHT31;67818;51.986;5.648;2023-02-28T07:05:11;5.1;58.7
78520;SHT31;67818;51.986;5.648;2023-02-28T07:07:41;5.2;58.0
78520;SHT31;67818;51.986;5.648;2023-02-28T07:10:14;5.3;57.1
78520;SHT31;67818;51.986;5.648;2023-02-28T07:12:46;5.4;56.4
78520;SHT31;67818;51.986;5.648;2023-02-28T07:15:16;5.4;56.1
78520;SHT31;67818;51.986;5.648;2023-02-28T07:17:46;5.4;56.7
78520;SHT31;67818;51.986;5.648;2023-02-28T07:20:17;5.4;56.4
78520;SHT31;67818;51.986;5.648;2023-02-28T07:22:46;5.4;56.5
78520;SHT31;67818;51.986;5.648;2023-02-28T07:25:21;5.3;56.5
78520;SHT31;67818;51.986;5.648;2023-02-28T07:27:51;5.3;56.3
78520;SHT31;67818;51.986;5.648;2023-02-28T07:30:23;5.3;55.8
78520;SHT31;67818;51.986;5.648;2023-02-28T07:32:53;5.3;56.0
78520;SHT31;67818;51.986;5.648;2023-02-28T07:35:23;5.3;55.3
78520;SHT31;67818;51.986;5.648;2023-02-28T07:37:53;5.3;54.1
78520;SHT31;67818;51.986;5.648;2023-02-28T07:40:22;5.3;53.8
78520;SHT31;67818;51.986;5.648;2023-02-28T07:42:54;5.3;54.0
78520;SHT31;67818;51.986;5.648;2023-02-28T07:45:24;5.3;55.4
78520;SHT31;67818;51.986;5.648;2023-02-28T07:47:53;5.3;54.8
78520;SHT31;67818;51.986;5.648;2023-02-28T07:50:23;5.3;54.7
78520;SHT31;67818;51.986;5.648;2023-02-28T07:52:53;5.4;52.5
78520;SHT31;67818;51.986;5.648;2023-02-28T07:55:23;5.4;52.0
78520;SHT31;67818;51.986;5.648;2023-02-28T07:57:53;5.4;51.2
78520;SHT31;67818;51.986;5.648;2023-02-28T08:00:23;5.4;50.7
78520;SHT31;67818;51.986;5.648;2023-02-28T08:02:56;5.4;50.2
78520;SHT31;67818;51.986;5.648;2023-02-28T08:05:25;5.4;49.8
78520;SHT31;67818;51.986;5.648;2023-02-28T08:07:55;5.5;50.0
78520;SHT31;67818;51.986;5.648;2023-02-28T08:10:25;5.5;48.9
78520;SHT31;67818;51.986;5.648;2023-02-28T08:12:55;5.6;49.1
78520;SHT31;67818;51.986;5.648;2023-02-28T08:15:25;5.9;48.2
78520;SHT31;67818;51.986;5.648;2023-02-28T08:17:54;6.3;46.6
78520;SHT31;67818;51.986;5.648;2023-02-28T08:20:26;6.8;43.2
78520;SHT31;67818;51.986;5.648;2023-02-28T08:22:56;7.4;42.4
78520;SHT31;67818;51.986;5.648;2023-02-28T08:25:25;7.7;39.0
78520;SHT31;67818;51.986;5.648;2023-02-28T08:27:57;8.0;37.3
78520;SHT31;67818;51.986;5.648;2023-02-28T08:30:26;8.4;35.1
78520;SHT31;67818;51.986;5.648;2023-02-28T08:32:56;8.5;34.1
78520;SHT31;67818;51.986;5.648;2023-02-28T08:35:26;8.5;32.7
78520;SHT31;67818;51.986;5.648;2023-02-28T08:37:55;8.5;32.8
78520;SHT31;67818;51.986;5.648;2023-02-28T08:40:25;8.4;32.5
78520;SHT31;67818;51.986;5.648;2023-02-28T08:42:55;8.2;32.8
78520;SHT31;67818;51.986;5.648;2023-02-28T08:45:25;8.1;32.5
78520;SHT31;67818;51.986;5.648;2023-02-28T08:47:56;7.9;33.9
78520;SHT31;67818;51.986;5.648;2023-02-28T08:50:25;7.7;33.8
78520;SHT31;67818;51.986;5.648;2023-02-28T08:52:56;7.5;33.4
78520;SHT31;67818;51.986;5.648;2023-02-28T08:55:25;7.3;32.7
78520;SHT31;67818;51.986;5.648;2023-02-28T08:57:55;7.2;33.7
78520;SHT31;67818;51.986;5.648;2023-02-28T09:00:25;7.2;35.0
78520;SHT31;67818;51.986;5.648;2023-02-28T09:02:55;7.3;35.1
78520;SHT31;67818;51.986;5.648;2023-02-28T09:05:24;7.5;35.2
78520;SHT31;67818;51.986;5.648;2023-02-28T09:07:56;7.7;34.1
78520;SHT31;67818;51.986;5.648;2023-02-28T09:10:27;7.9;33.2
78520;SHT31;67818;51.986;5.648;2023-02-28T09:12:58;8.0;32.9
78520;SHT31;67818;51.986;5.648;2023-02-28T09:15:28;8.2;32.2
78520;SHT31;67818;51.986;5.648;2023-02-28T09:17:59;8.4;31.9
78520;SHT31;67818;51.986;5.648;2023-02-28T09:20:29;8.6;31.3
78520;SHT31;67818;51.986;5.648;2023-02-28T09:22:59;8.9;31.3
78520;SHT31;67818;51.986;5.648;2023-02-28T09:25:29;9.1;30.3
78520;SHT31;67818;51.986;5.648;2023-02-28T09:27:58;9.4;29.1
78520;SHT31;67818;51.986;5.648;2023-02-28T09:30:28;9.5;29.4
78520;SHT31;67818;51.986;5.648;2023-02-28T09:33:00;9.6;27.9
78520;SHT31;67818;51.986;5.648;2023-02-28T09:35:29;9.6;27.5
78520;SHT31;67818;51.986;5.648;2023-02-28T09:38:00;9.3;28.0
78520;SHT31;67818;51.986;5.648;2023-02-28T09:40:31;9.1;28.3
78520;SHT31;67818;51.986;5.648;2023-02-28T09:43:09;9.0;28.5
78520;SHT31;67818;51.986;5.648;2023-02-28T09:45:44;8.9;28.7
78520;SHT31;67818;51.986;5.648;2023-02-28T09:48:20;8.8;29.1
78520;SHT31;67818;51.986;5.648;2023-02-28T09:50:55;8.8;29.2
78520;SHT31;67818;51.986;5.648;2023-02-28T09:53:28;8.9;29.6
78520;SHT31;67818;51.986;5.648;2023-02-28T09:56:05;8.9;29.5
78520;SHT31;67818;51.986;5.648;2023-02-28T09:58:42;9.0;29.4
78520;SHT31;67818;51.986;5.648;2023-02-28T10:01:23;9.1;28.6
78520;SHT31;67818;51.986;5.648;2023-02-28T10:03:59;9.2;28.1
78520;SHT31;67818;51.986;5.648;2023-02-28T10:06:38;9.3;28.1
78520;SHT31;67818;51.986;5.648;2023-02-28T10:09:15;9.3;27.8
78520;SHT31;67818;51.986;5.648;2023-02-28T10:11:51;9.4;27.9
78520;SHT31;67818;51.986;5.648;2023-02-28T10:14:23;9.4;28.0
78520;SHT31;67818;51.986;5.648;2023-02-28T10:16:58;9.4;28.1
78520;SHT31;67818;51.986;5.648;2023-02-28T10:19:34;9.5;28.1
78520;SHT31;67818;51.986;5.648;2023-02-28T10:22:12;9.5;27.7
78520;SHT31;67818;51.986;5.648;2023-02-28T10:24:46;9.5;27.4
78520;SHT31;67818;51.986;5.648;2023-02-28T10:27:19;9.3;28.1
78520;SHT31;67818;51.986;5.648;2023-02-28T10:29:51;9.1;29.0
78520;SHT31;67818;51.986;5.648;2023-02-28T10:32:24;9.0;29.3
78520;SHT31;67818;51.986;5.648;2023-02-28T10:34:59;9.0;29.4
78520;SHT31;67818;51.986;5.648;2023-02-28T10:37:28;10.6;26.8
78520;SHT31;67818;51.986;5.648;2023-02-28T10:40:00;10.7;26.9
78520;SHT31;67818;51.986;5.648;2023-02-28T10:42:33;10.6;27.5
78520;SHT31;67818;51.986;5.648;2023-02-28T10:45:11;10.5;27.7
78520;SHT31;67818;51.986;5.648;2023-02-28T10:47:52;10.4;27.8
78520;SHT31;67818;51.986;5.648;2023-02-28T10:50:32;10.4;27.7
78520;SHT31;67818;51.986;5.648;2023-02-28T10:54:17;10.4;27.6
78520;SHT31;67818;51.986;5.648;2023-02-28T10:57:07;10.5;28.0
78520;SHT31;67818;51.986;5.648;2023-02-28T10:59:38;10.6;27.8
78520;SHT31;67818;51.986;5.648;2023-02-28T11:02:33;10.7;27.3
78520;SHT31;67818;51.986;5.648;2023-02-28T11:05:30;10.7;27.7
78520;SHT31;67818;51.986;5.648;2023-02-28T11:08:06;10.6;27.9
78520;SHT31;67818;51.986;5.648;2023-02-28T11:10:44;10.5;28.2
78520;SHT31;67818;51.986;5.648;2023-02-28T11:13:21;10.5;28.3
78520;SHT31;67818;51.986;5.648;2023-02-28T11:15:56;10.4;28.0
78520;SHT31;67818;51.986;5.648;2023-02-28T11:18:29;10.3;27.9
78520;SHT31;67818;51.986;5.648;2023-02-28T11:21:02;10.4;28.2
78520;SHT31;67818;51.986;5.648;2023-02-28T11:23:35;10.4;28.5
78520;SHT31;67818;51.986;5.648;2023-02-28T11:26:07;10.5;28.0
78520;SHT31;67818;51.986;5.648;2023-02-28T11:28:41;10.5;28.0
78520;SHT31;67818;51.986;5.648;2023-02-28T11:31:18;10.5;27.9
78520;SHT31;67818;51.986;5.648;2023-02-28T11:33:53;10.6;28.3
78520;SHT31;67818;51.986;5.648;2023-02-28T11:36:27;11.5;27.0
78520;SHT31;67818;51.986;5.648;2023-02-28T11:39:00;11.4;26.9
78520;SHT31;67818;51.986;5.648;2023-02-28T11:41:51;11.4;27.1
78520;SHT31;67818;51.986;5.648;2023-02-28T11:44:36;11.3;27.2
78520;SHT31;67818;51.986;5.648;2023-02-28T11:47:13;11.2;27.2
78520;SHT31;67818;51.986;5.648;2023-02-28T11:49:54;11.2;27.8
78520;SHT31;67818;51.986;5.648;2023-02-28T11:52:37;11.3;27.5
78520;SHT31;67818;51.986;5.648;2023-02-28T11:55:25;11.5;26.6
78520;SHT31;67818;51.986;5.648;2023-02-28T11:58:05;11.1;27.6
78520;SHT31;67818;51.986;5.648;2023-02-28T12:00:54;10.9;27.3
78520;SHT31;67818;51.986;5.648;2023-02-28T12:03:38;10.9;27.4
78520;SHT31;67818;51.986;5.648;2023-02-28T12:06:17;10.9;27.6
78520;SHT31;67818;51.986;5.648;2023-02-28T12:09:23;11.0;28.0
78520;SHT31;67818;51.986;5.648;2023-02-28T12:12:04;11.2;27.4
78520;SHT31;67818;51.986;5.648;2023-02-28T12:15:45;11.4;27.2
78520;SHT31;67818;51.986;5.648;2023-02-28T12:18:28;11.6;26.5
78520;SHT31;67818;51.986;5.648;2023-02-28T12:21:14;11.7;26.1
78520;SHT31;67818;51.986;5.648;2023-02-28T12:24:01;11.9;25.9
78520;SHT31;67818;51.986;5.648;2023-02-28T12:26:41;12.1;25.4
78520;SHT31;67818;51.986;5.648;2023-02-28T12:29:16;12.1;25.5
78520;SHT31;67818;51.986;5.648;2023-02-28T12:31:51;12.2;25.6
78520;SHT31;67818;51.986;5.648;2023-02-28T12:34:27;12.2;25.5
78520;SHT31;67818;51.986;5.648;2023-02-28T12:37:01;12.3;24.7
78520;SHT31;67818;51.986;5.648;2023-02-28T12:39:40;12.4;24.8
78520;SHT31;67818;51.986;5.648;2023-02-28T12:42:16;12.5;25.4
78520;SHT31;67818;51.986;5.648;2023-02-28T12:44:58;12.5;25.1
78520;SHT31;67818;51.986;5.648;2023-02-28T12:47:29;12.6;24.5
78520;SHT31;67818;51.986;5.648;2023-02-28T12:50:04;12.6;25.1
78520;SHT31;67818;51.986;5.648;2023-02-28T12:52:46;12.6;24.3
78520;SHT31;67818;51.986;5.648;2023-02-28T12:55:23;12.6;24.7
78520;SHT31;67818;51.986;5.648;2023-02-28T12:58:08;12.5;23.9
78520;SHT31;67818;51.986;5.648;2023-02-28T13:01:02;12.4;24.1
78520;SHT31;67818;51.986;5.648;2023-02-28T13:04:29;12.3;24.5
78520;SHT31;67818;51.986;5.648;2023-02-28T13:07:40;12.1;25.3
78520;SHT31;67818;51.986;5.648;2023-02-28T13:10:16;12.1;25.5
78520;SHT31;67818;51.986;5.648;2023-02-28T13:12:53;12.1;26.4
78520;SHT31;67818;51.986;5.648;2023-02-28T13:15:27;12.0;25.5
78520;SHT31;67818;51.986;5.648;2023-02-28T13:17:59;11.9;25.3
78520;SHT31;67818;51.986;5.648;2023-02-28T13:20:34;11.8;25.0
78520;SHT31;67818;51.986;5.648;2023-02-28T13:23:35;11.6;25.5
78520;SHT31;67818;51.986;5.648;2023-02-28T13:26:08;11.5;25.9
78520;SHT31;67818;51.986;5.648;2023-02-28T13:33:25;11.1;25.7
78520;SHT31;67818;51.986;5.648;2023-02-28T13:36:09;11.0;26.4
78520;SHT31;67818;51.986;5.648;2023-02-28T13:38:45;10.9;26.5
78520;SHT31;67818;51.986;5.648;2023-02-28T13:43:10;10.8;27.1
